Time;durP1;ratioP1;P1;durP2;ratioP2;P2;SDS_P1;SDS_P2;PMS_P1;PMS_P2;Temp;Humidity;BMP_temperature;BMP_pressure;BME280_temperature;BME280_humidity;BME280_pressure;Samples;Min_cycle;Max_cycle;Signal;HPM_P1;HPM_P2
2022/10/20 00:01:57;;;;;;;;;;;7.20;99.90;;;;;;5109135;28;1106;-64
2022/10/20 00:04:23;;;;;;;;;;;7.20;99.90;;;;;;5109618;28;1141;-64
2022/10/20 00:06:48;;;;;;;;;;;7.10;99.90;;;;;;5109774;28;1103;-64
2022/10/20 00:09:14;;;;;;;;;;;7.10;99.90;;;;;;5110540;28;1163;-64
2022/10/20 00:11:40;;;;;;;;;;;7.10;99.90;;;;;;5109553;28;1366;-64
2022/10/20 00:14:05;;;;;;;;;;;7.10;99.90;;;;;;5109718;28;1149;-64
2022/10/20 00:16:33;;;;;;;;;;;7.10;99.90;;;;;;5108153;28;2164;-64
2022/10/20 00:18:59;;;;;;;;;;;7.10;99.90;;;;;;5109728;28;1976;-64
2022/10/20 00:21:25;;;;;;;;;;;7.10;99.90;;;;;;5109489;28;1182;-64
2022/10/20 00:23:51;;;;;;;;;;;7.10;99.90;;;;;;5108947;28;1084;-64
2022/10/20 00:26:19;;;;;;;;;;;7.00;99.90;;;;;;5109452;28;1112;-64
2022/10/20 00:28:45;;;;;;;;;;;7.00;99.90;;;;;;5107564;28;1253;-64
2022/10/20 00:31:11;;;;;;;;;;;7.00;99.90;;;;;;5109333;28;1099;-64
2022/10/20 00:33:36;;;;;;;;;;;6.90;99.90;;;;;;5107757;28;2282;-64
2022/10/20 00:36:03;;;;;;;;;;;6.90;99.90;;;;;;5107938;28;1127;-64
2022/10/20 00:38:29;;;;;;;;;;;6.90;99.90;;;;;;5110101;28;1917;-64
2022/10/20 00:40:55;;;;;;;;;;;6.90;99.90;;;;;;5108700;28;1145;-64
2022/10/20 00:43:20;;;;;;;;;;;6.90;99.90;;;;;;5109611;28;1039;-64
2022/10/20 00:45:54;;;;;;;;;;;6.90;99.90;;;;;;5109117;28;1195;-64
2022/10/20 00:48:22;;;;;;;;;;;6.80;99.90;;;;;;5109221;28;1091;-64
2022/10/20 00:50:49;;;;;;;;;;;6.80;99.90;;;;;;5109378;28;1151;-64
2022/10/20 00:53:15;;;;;;;;;;;6.80;99.90;;;;;;5108249;28;1149;-64
2022/10/20 00:55:44;;;;;;;;;;;6.90;99.90;;;;;;5107802;28;1289;-64
2022/10/20 00:58:10;;;;;;;;;;;6.80;99.90;;;;;;5106315;28;1905;-64
2022/10/20 01:00:37;;;;;;;;;;;6.80;99.90;;;;;;5108379;28;1305;-64
2022/10/20 01:03:04;;;;;;;;;;;6.80;99.90;;;;;;5107835;28;1274;-64
2022/10/20 01:05:30;;;;;;;;;;;6.80;99.90;;;;;;5108574;28;1289;-64
2022/10/20 01:07:56;;;;;;;;;;;6.80;99.90;;;;;;5108700;28;1285;-64
2022/10/20 01:10:23;;;;;;;;;;;6.80;99.90;;;;;;5107576;28;1118;-64
2022/10/20 01:12:48;;;;;;;;;;;6.80;99.90;;;;;;5106219;28;1203;-64
2022/10/20 01:15:22;;;;;;;;;;;6.80;99.90;;;;;;5106705;28;1076;-64
2022/10/20 01:17:52;;;;;;;;;;;6.70;99.90;;;;;;5107365;28;1258;-64
2022/10/20 01:20:18;;;;;;;;;;;6.70;99.90;;;;;;5101347;28;1203;-64
2022/10/20 01:23:06;;;;;;;;;;;6.70;99.90;;;;;;5108678;28;1247;-64
2022/10/20 01:25:50;;;;;;;;;;;6.70;99.90;;;;;;5099468;28;1148;-64
2022/10/20 01:28:25;;;;;;;;;;;6.60;99.90;;;;;;5110207;28;1150;-64
2022/10/20 01:30:55;;;;;;;;;;;6.60;99.90;;;;;;5113602;28;1095;-63
2022/10/20 01:33:20;;;;;;;;;;;6.60;99.90;;;;;;5111762;28;1129;-64
2022/10/20 01:35:57;;;;;;;;;;;6.60;99.90;;;;;;5112664;28;1087;-64
2022/10/20 01:38:29;;;;;;;;;;;6.50;99.90;;;;;;5113297;28;1909;-64
2022/10/20 01:41:01;;;;;;;;;;;6.60;99.90;;;;;;5112910;28;1192;-64
2022/10/20 01:43:29;;;;;;;;;;;6.60;99.90;;;;;;5102409;28;1155;-64
2022/10/20 01:45:56;;;;;;;;;;;6.50;99.90;;;;;;5112829;28;1333;-64
2022/10/20 01:48:24;;;;;;;;;;;6.50;99.90;;;;;;5112825;28;1091;-64
2022/10/20 01:50:50;;;;;;;;;;;6.40;99.90;;;;;;5111205;28;1183;-63
2022/10/20 01:53:15;;;;;;;;;;;6.50;99.90;;;;;;5113126;28;1099;-64
2022/10/20 01:55:41;;;;;;;;;;;6.40;99.90;;;;;;5112978;28;1115;-64
2022/10/20 01:58:14;;;;;;;;;;;6.50;99.90;;;;;;5111727;28;1926;-64
2022/10/20 02:00:41;;;;;;;;;;;6.40;99.90;;;;;;5112213;28;1148;-64
2022/10/20 02:03:10;;;;;;;;;;;6.40;99.90;;;;;;5112904;28;1147;-64
2022/10/20 02:05:56;;;;;;;;;;;6.40;99.90;;;;;;5112214;28;1155;-64
2022/10/20 02:08:29;;;;;;;;;;;6.40;99.90;;;;;;5108042;28;1072;-64
2022/10/20 02:10:57;;;;;;;;;;;6.40;99.90;;;;;;5111877;28;1234;-64
2022/10/20 02:13:24;;;;;;;;;;;6.50;99.90;;;;;;5112243;28;1007;-64
2022/10/20 02:15:52;;;;;;;;;;;6.80;99.90;;;;;;5112560;28;1139;-63
2022/10/20 02:18:26;;;;;;;;;;;6.50;99.90;;;;;;5111487;28;1918;-64
2022/10/20 02:20:52;;;;;;;;;;;6.40;99.90;;;;;;5112451;28;1060;-64
2022/10/20 02:23:18;;;;;;;;;;;6.50;99.90;;;;;;5112578;28;1187;-63
2022/10/20 02:25:45;;;;;;;;;;;6.50;99.90;;;;;;5111456;28;1147;-64
2022/10/20 02:28:11;;;;;;;;;;;;;;;;;;5111855;27;1032;-63
2022/10/20 02:30:37;;;;;;;;;;;6.20;99.90;;;;;;5112402;28;1095;-64
2022/10/20 02:33:03;;;;;;;;;;;6.10;99.90;;;;;;5111632;28;1127;-64
2022/10/20 02:35:31;;;;;;;;;;;6.10;99.90;;;;;;5111481;28;1168;-64
2022/10/20 02:37:56;;;;;;;;;;;6.10;99.90;;;;;;5110289;28;1918;-64
2022/10/20 02:40:22;;;;;;;;;;;6.00;99.90;;;;;;5110894;28;1131;-64
2022/10/20 02:42:48;;;;;;;;;;;6.00;99.90;;;;;;5109694;28;2029;-63
2022/10/20 02:45:14;;;;;;;;;;;6.30;99.90;;;;;;5112014;27;1255;-64
2022/10/20 02:47:39;;;;;;;;;;;6.20;99.90;;;;;;5110962;28;1238;-64
2022/10/20 02:50:06;;;;;;;;;;;6.10;99.90;;;;;;5111996;28;1119;-64
2022/10/20 02:52:32;;;;;;;;;;;6.10;99.90;;;;;;5109819;28;1051;-64
2022/10/20 02:54:57;;;;;;;;;;;6.10;99.90;;;;;;5112103;28;1096;-64
2022/10/20 02:57:23;;;;;;;;;;;6.10;99.90;;;;;;5111629;28;1022;-63
2022/10/20 02:59:49;;;;;;;;;;;6.10;99.90;;;;;;5110820;27;1909;-64
2022/10/20 03:02:14;;;;;;;;;;;6.10;99.90;;;;;;5109862;28;1209;-63
2022/10/20 03:04:40;;;;;;;;;;;6.10;99.90;;;;;;5111394;28;1144;-64
2022/10/20 03:07:06;;;;;;;;;;;6.10;99.90;;;;;;5111283;28;1175;-64
2022/10/20 03:09:31;;;;;;;;;;;6.10;99.90;;;;;;5108421;28;1211;-63
2022/10/20 03:11:57;;;;;;;;;;;6.10;99.90;;;;;;5111162;28;1329;-63
2022/10/20 03:14:22;;;;;;;;;;;6.10;99.90;;;;;;5110922;28;1143;-64
2022/10/20 03:16:48;;;;;;;;;;;6.10;99.90;;;;;;5111741;28;1124;-64
2022/10/20 03:19:14;;;;;;;;;;;6.10;99.90;;;;;;5111043;28;1972;-64
2022/10/20 03:21:39;;;;;;;;;;;6.10;99.90;;;;;;5110759;28;1159;-64
2022/10/20 03:24:05;;;;;;;;;;;6.10;99.90;;;;;;5111235;28;1071;-63
2022/10/20 03:26:31;;;;;;;;;;;6.10;99.90;;;;;;5111016;28;1132;-63
2022/10/20 03:28:56;;;;;;;;;;;6.00;99.90;;;;;;5103428;28;1117;-63
2022/10/20 03:31:22;;;;;;;;;;;6.00;99.90;;;;;;5111353;28;1119;-63
2022/10/20 03:33:48;;;;;;;;;;;6.10;99.90;;;;;;5110689;28;1083;-63
2022/10/20 03:36:13;;;;;;;;;;;6.00;99.90;;;;;;5110042;28;1189;-63
2022/10/20 03:38:41;;;;;;;;;;;6.00;99.90;;;;;;5110876;28;1976;-64
2022/10/20 03:41:07;;;;;;;;;;;6.00;99.90;;;;;;5109302;28;1166;-64
2022/10/20 03:43:33;;;;;;;;;;;6.00;99.90;;;;;;5110324;28;1099;-63
2022/10/20 03:46:01;;;;;;;;;;;6.00;99.90;;;;;;5110365;28;1296;-63
2022/10/20 03:48:27;;;;;;;;;;;6.00;99.90;;;;;;5110005;28;1120;-63
2022/10/20 03:50:52;;;;;;;;;;;6.00;99.90;;;;;;5108225;28;1164;-63
2022/10/20 03:53:18;;;;;;;;;;;6.00;99.90;;;;;;5111040;28;1182;-63
2022/10/20 03:55:43;;;;;;;;;;;6.00;99.90;;;;;;5109238;28;1160;-63
2022/10/20 03:58:09;;;;;;;;;;;6.00;99.90;;;;;;5110487;28;1971;-63
2022/10/20 04:00:34;;;;;;;;;;;6.00;99.90;;;;;;5110829;28;1076;-63
2022/10/20 04:03:00;;;;;;;;;;;5.90;99.90;;;;;;5109345;28;1162;-63
2022/10/20 04:05:26;;;;;;;;;;;5.90;99.90;;;;;;5110956;28;1145;-63
2022/10/20 04:07:51;;;;;;;;;;;5.90;99.90;;;;;;5110675;28;1154;-63
2022/10/20 04:10:17;;;;;;;;;;;5.90;99.90;;;;;;5109448;28;1126;-63
2022/10/20 04:12:43;;;;;;;;;;;5.90;99.90;;;;;;5110113;28;1178;-63
2022/10/20 04:15:09;;;;;;;;;;;5.80;99.90;;;;;;5110250;28;1060;-63
2022/10/20 04:17:35;;;;;;;;;;;5.80;99.90;;;;;;5108934;28;1068;-63
2022/10/20 04:20:01;;;;;;;;;;;5.80;99.90;;;;;;5125631;27;1913;-63
2022/10/20 04:22:27;;;;;;;;;;;5.80;99.90;;;;;;5110633;28;1139;-64
2022/10/20 04:24:52;;;;;;;;;;;5.60;99.90;;;;;;5109147;28;1127;-63
2022/10/20 04:27:18;;;;;;;;;;;5.80;99.90;;;;;;5108756;28;1099;-63
2022/10/20 04:29:45;;;;;;;;;;;5.80;99.90;;;;;;5109880;28;1150;-63
2022/10/20 04:32:10;;;;;;;;;;;5.50;99.90;;;;;;5109025;28;1051;-63
2022/10/20 04:34:36;;;;;;;;;;;6.30;99.90;;;;;;5109999;28;1068;-63
2022/10/20 04:37:02;;;;;;;;;;;6.00;99.90;;;;;;5110235;28;1127;-63
2022/10/20 04:39:27;;;;;;;;;;;6.30;99.90;;;;;;5108580;28;1977;-63
2022/10/20 04:41:53;;;;;;;;;;;5.70;99.90;;;;;;5109707;28;1091;-63
2022/10/20 04:44:18;;;;;;;;;;;6.20;99.90;;;;;;5109540;28;1128;-63
2022/10/20 04:46:44;;;;;;;;;;;5.80;99.90;;;;;;5105726;28;1440;-63
2022/10/20 04:49:10;;;;;;;;;;;5.70;99.90;;;;;;5107049;28;1285;-64
2022/10/20 04:51:35;;;;;;;;;;;5.70;99.90;;;;;;5110007;28;1206;-63
2022/10/20 04:54:01;;;;;;;;;;;5.70;99.90;;;;;;5108662;28;1015;-63
2022/10/20 04:56:27;;;;;;;;;;;5.80;99.90;;;;;;5109127;28;1092;-64
2022/10/20 04:58:56;;;;;;;;;;;5.60;99.90;;;;;;5109685;28;1910;-63
2022/10/20 05:01:23;;;;;;;;;;;5.60;99.90;;;;;;5108282;28;1154;-64
2022/10/20 05:03:49;;;;;;;;;;;5.60;99.90;;;;;;5109810;28;1218;-64
2022/10/20 05:06:16;;;;;;;;;;;5.70;99.90;;;;;;5102166;28;1093;-64
2022/10/20 05:08:43;;;;;;;;;;;5.80;99.90;;;;;;5109573;28;1135;-64
2022/10/20 05:11:09;;;;;;;;;;;6.10;99.90;;;;;;5109784;28;1310;-64
2022/10/20 05:13:35;;;;;;;;;;;;;;;;;;5107465;28;1032;-63
2022/10/20 05:16:01;;;;;;;;;;;5.60;99.90;;;;;;5109577;28;1218;-63
2022/10/20 05:18:27;;;;;;;;;;;5.60;99.90;;;;;;5108184;28;1917;-63
2022/10/20 05:20:53;;;;;;;;;;;5.60;99.90;;;;;;5109024;28;1072;-64
2022/10/20 05:23:19;;;;;;;;;;;5.60;99.90;;;;;;5109184;28;1174;-64
2022/10/20 05:25:44;;;;;;;;;;;5.60;99.90;;;;;;5109142;28;1095;-63
2022/10/20 05:28:10;;;;;;;;;;;5.50;99.90;;;;;;5108622;28;1115;-64
2022/10/20 05:30:36;;;;;;;;;;;5.70;99.90;;;;;;5109733;28;1103;-63
2022/10/20 05:33:02;;;;;;;;;;;5.70;99.90;;;;;;5108560;28;1018;-63
2022/10/20 05:35:28;;;;;;;;;;;5.70;99.90;;;;;;5108921;28;1099;-63
2022/10/20 05:37:53;;;;;;;;;;;5.70;99.90;;;;;;5109316;28;1095;-63
2022/10/20 05:40:20;;;;;;;;;;;5.80;99.90;;;;;;5108512;28;1910;-63
2022/10/20 05:42:45;;;;;;;;;;;5.70;99.90;;;;;;5108662;28;1135;-62
2022/10/20 05:45:11;;;;;;;;;;;5.80;99.90;;;;;;5109282;28;1214;-63
2022/10/20 05:47:37;;;;;;;;;;;5.70;99.90;;;;;;5104016;28;1357;-63
2022/10/20 05:50:02;;;;;;;;;;;5.80;99.90;;;;;;5107833;28;1234;-63
2022/10/20 05:52:28;;;;;;;;;;;5.70;99.90;;;;;;5108232;28;1210;-63
2022/10/20 05:54:54;;;;;;;;;;;5.80;99.90;;;;;;5108939;28;1163;-63
2022/10/20 05:57:19;;;;;;;;;;;6.00;99.90;;;;;;5108166;28;1011;-63
2022/10/20 05:59:45;;;;;;;;;;;6.10;99.90;;;;;;5107696;28;1913;-62
2022/10/20 06:02:11;;;;;;;;;;;5.60;99.90;;;;;;5108878;28;1131;-63
2022/10/20 06:04:36;;;;;;;;;;;6.10;99.90;;;;;;5108715;28;1099;-63
2022/10/20 06:07:04;;;;;;;;;;;5.90;99.90;;;;;;5108642;28;1055;-63
2022/10/20 06:09:30;;;;;;;;;;;5.90;99.90;;;;;;5123817;28;1075;-63
2022/10/20 06:11:56;;;;;;;;;;;6.00;99.90;;;;;;5109063;28;1278;-63
2022/10/20 06:14:21;;;;;;;;;;;6.00;99.90;;;;;;5110604;28;1135;-63
2022/10/20 06:16:49;;;;;;;;;;;6.30;99.90;;;;;;5111211;28;1135;-63
2022/10/20 06:19:14;;;;;;;;;;;5.70;99.90;;;;;;5112683;27;1977;-63
2022/10/20 06:21:40;;;;;;;;;;;6.20;99.90;;;;;;5112493;28;1118;-63
2022/10/20 06:24:06;;;;;;;;;;;6.00;99.90;;;;;;5111084;28;1136;-63
2022/10/20 06:26:32;;;;;;;;;;;5.90;99.90;;;;;;5111003;28;1100;-63
2022/10/20 06:28:58;;;;;;;;;;;6.20;99.90;;;;;;5112377;28;1092;-63
2022/10/20 06:31:25;;;;;;;;;;;5.80;99.90;;;;;;5111135;28;1127;-63
2022/10/20 06:33:51;;;;;;;;;;;6.40;99.90;;;;;;5111967;28;1088;-63
2022/10/20 06:36:18;;;;;;;;;;;5.80;99.90;;;;;;5112091;28;1202;-63
2022/10/20 06:38:43;;;;;;;;;;;6.00;99.90;;;;;;5111378;28;1959;-62
2022/10/20 06:41:11;;;;;;;;;;;6.00;99.90;;;;;;5112238;28;1139;-63
2022/10/20 06:43:36;;;;;;;;;;;6.30;99.90;;;;;;5111902;28;1231;-63
2022/10/20 06:46:03;;;;;;;;;;;6.10;99.90;;;;;;5109993;28;1203;-63
2022/10/20 06:48:29;;;;;;;;;;;6.60;99.90;;;;;;5102822;28;1314;-63
2022/10/20 06:50:57;;;;;;;;;;;6.20;99.90;;;;;;5110001;28;1151;-63
2022/10/20 06:53:22;;;;;;;;;;;6.20;99.90;;;;;;5107191;28;3723;-63
2022/10/20 06:55:55;;;;;;;;;;;6.00;99.90;;;;;;5109697;27;3563;-63
2022/10/20 06:58:20;;;;;;;;;;;6.30;99.90;;;;;;5103194;28;3941;-63
2022/10/20 07:00:46;;;;;;;;;;;6.30;99.90;;;;;;5100423;28;1057;-63
2022/10/20 07:03:12;;;;;;;;;;;6.70;99.90;;;;;;5109109;28;3910;-63
2022/10/20 07:05:37;;;;;;;;;;;6.50;99.90;;;;;;5110590;28;1266;-63
2022/10/20 07:08:03;;;;;;;;;;;6.40;99.90;;;;;;5109044;28;1223;-63
2022/10/20 07:10:28;;;;;;;;;;;6.60;99.90;;;;;;5109794;28;1301;-63
2022/10/20 07:12:54;;;;;;;;;;;6.90;99.90;;;;;;5110588;28;1693;-63
2022/10/20 07:15:20;;;;;;;;;;;6.80;99.90;;;;;;5110689;28;3225;-63
2022/10/20 07:17:47;;;;;;;;;;;6.80;99.90;;;;;;5108627;28;1219;-63
2022/10/20 07:20:13;;;;;;;;;;;7.30;99.90;;;;;;5109871;28;2016;-63
2022/10/20 07:22:39;;;;;;;;;;;7.10;99.90;;;;;;5110608;28;1238;-63
2022/10/20 07:25:05;;;;;;;;;;;7.10;99.90;;;;;;5110887;28;1131;-63
2022/10/20 07:27:31;;;;;;;;;;;7.20;99.90;;;;;;5105855;28;1198;-63
2022/10/20 07:29:57;;;;;;;;;;;7.30;99.90;;;;;;5110781;28;1139;-63
2022/10/20 07:32:22;;;;;;;;;;;7.50;99.90;;;;;;5111427;28;1188;-63
2022/10/20 07:34:48;;;;;;;;;;;7.40;99.90;;;;;;5107245;28;1179;-63
2022/10/20 07:37:13;;;;;;;;;;;7.40;99.90;;;;;;5101484;28;1185;-63
2022/10/20 07:39:39;;;;;;;;;;;7.50;99.90;;;;;;5126424;27;1914;-63
2022/10/20 07:42:05;;;;;;;;;;;7.60;99.90;;;;;;5110464;28;1112;-63
2022/10/20 07:44:30;;;;;;;;;;;7.80;99.90;;;;;;5102686;28;1131;-63
2022/10/20 07:46:56;;;;;;;;;;;7.90;99.90;;;;;;5102499;28;1804;-62
2022/10/20 07:49:22;;;;;;;;;;;7.80;99.90;;;;;;5108855;28;1222;-63
2022/10/20 07:51:47;;;;;;;;;;;7.70;99.90;;;;;;5107781;28;3560;-63
2022/10/20 07:54:13;;;;;;;;;;;7.80;99.90;;;;;;5110005;28;1186;-63
2022/10/20 07:56:40;;;;;;;;;;;7.80;99.90;;;;;;5109878;28;1110;-63
2022/10/20 07:59:06;;;;;;;;;;;7.80;99.90;;;;;;5110102;28;1918;-63
2022/10/20 08:01:32;;;;;;;;;;;7.70;99.90;;;;;;5110378;28;1300;-63
2022/10/20 08:03:58;;;;;;;;;;;7.80;99.90;;;;;;5109861;28;1120;-63
2022/10/20 08:06:24;;;;;;;;;;;7.80;99.90;;;;;;5110371;28;1100;-63
2022/10/20 08:08:50;;;;;;;;;;;7.90;99.90;;;;;;5110292;28;1174;-63
2022/10/20 08:11:16;;;;;;;;;;;7.90;99.90;;;;;;5102632;28;1507;-63
2022/10/20 08:13:41;;;;;;;;;;;7.90;99.90;;;;;;5107545;28;3658;-63
2022/10/20 08:16:08;;;;;;;;;;;8.10;99.90;;;;;;5103754;28;3855;-63
2022/10/20 08:18:34;;;;;;;;;;;8.00;99.90;;;;;;5110037;28;3639;-63
2022/10/20 08:21:07;;;;;;;;;;;8.10;99.90;;;;;;5101720;28;1118;-63
2022/10/20 08:23:33;;;;;;;;;;;8.30;99.90;;;;;;5097274;28;1127;-63
2022/10/20 08:25:59;;;;;;;;;;;8.30;99.90;;;;;;5094799;27;3477;-63
2022/10/20 08:28:24;;;;;;;;;;;8.30;99.90;;;;;;5108872;28;1321;-63
2022/10/20 08:30:50;;;;;;;;;;;8.60;99.90;;;;;;5108620;28;1614;-63
2022/10/20 08:33:15;;;;;;;;;;;8.70;99.90;;;;;;5091459;28;1381;-63
2022/10/20 08:35:41;;;;;;;;;;;8.70;99.90;;;;;;5108849;28;1430;-63
2022/10/20 08:38:07;;;;;;;;;;;8.70;99.90;;;;;;5107930;28;1909;-63
2022/10/20 08:40:33;;;;;;;;;;;8.90;99.90;;;;;;5109851;28;1076;-63
2022/10/20 08:42:59;;;;;;;;;;;9.10;99.90;;;;;;5109797;28;1348;-63
2022/10/20 08:45:26;;;;;;;;;;;9.10;99.90;;;;;;5104834;28;3857;-63
2022/10/20 08:47:53;;;;;;;;;;;9.40;99.90;;;;;;5104864;28;1311;-64
2022/10/20 08:50:20;;;;;;;;;;;9.20;99.90;;;;;;5092859;28;3536;-63
2022/10/20 08:52:47;;;;;;;;;;;9.30;99.90;;;;;;5104009;28;1035;-64
2022/10/20 08:55:27;;;;;;;;;;;9.60;99.90;;;;;;5099929;28;1071;-64
2022/10/20 08:57:55;;;;;;;;;;;9.50;99.90;;;;;;5104362;28;1168;-64
2022/10/20 09:00:21;;;;;;;;;;;9.60;99.90;;;;;;5108252;28;1929;-64
2022/10/20 09:02:48;;;;;;;;;;;9.80;99.90;;;;;;5106227;28;3551;-64
2022/10/20 09:05:15;;;;;;;;;;;9.80;99.90;;;;;;5096703;28;1129;-64
2022/10/20 09:07:41;;;;;;;;;;;10.00;99.90;;;;;;5108391;28;1434;-64
2022/10/20 09:10:19;;;;;;;;;;;10.10;99.90;;;;;;5109087;28;1668;-64
2022/10/20 09:12:46;;;;;;;;;;;10.00;99.90;;;;;;5104637;28;1411;-64
2022/10/20 09:15:13;;;;;;;;;;;10.10;99.90;;;;;;5108452;28;1095;-64
2022/10/20 09:17:40;;;;;;;;;;;10.20;99.90;;;;;;5103580;28;1186;-64
2022/10/20 09:20:10;;;;;;;;;;;10.40;99.90;;;;;;5107957;28;1979;-64
2022/10/20 09:22:36;;;;;;;;;;;10.60;99.90;;;;;;5104468;28;1352;-64
2022/10/20 09:25:02;;;;;;;;;;;10.80;99.90;;;;;;5105754;28;2907;-63
2022/10/20 09:27:28;;;;;;;;;;;11.00;99.90;;;;;;5104955;28;3843;-63
2022/10/20 09:29:53;;;;;;;;;;;11.10;99.90;;;;;;5096486;28;3701;-64
2022/10/20 09:32:30;;;;;;;;;;;11.20;99.90;;;;;;5102936;28;3914;-64
2022/10/20 09:35:26;;;;;;;;;;;11.30;99.90;;;;;;5106160;28;1563;-64
2022/10/20 09:38:11;;;;;;;;;;;11.50;99.90;;;;;;5095467;28;3100;-64
2022/10/20 09:40:43;;;;;;;;;;;11.70;99.90;;;;;;5102072;28;1112;-64
2022/10/20 09:43:10;;;;;;;;;;;11.90;99.90;;;;;;5108679;28;1139;-64
2022/10/20 09:45:38;;;;;;;;;;;12.10;99.90;;;;;;5107617;28;3608;-63
2022/10/20 09:48:15;;;;;;;;;;;12.30;99.90;;;;;;5099666;28;3959;-63
2022/10/20 09:50:45;;;;;;;;;;;12.40;99.90;;;;;;5101653;28;3998;-64
2022/10/20 09:53:16;;;;;;;;;;;12.50;99.90;;;;;;5106254;28;3660;-64
2022/10/20 09:55:47;;;;;;;;;;;12.50;99.90;;;;;;5100214;28;3627;-64
2022/10/20 09:58:19;;;;;;;;;;;12.60;99.90;;;;;;5102549;28;3544;-63
2022/10/20 10:00:53;;;;;;;;;;;12.50;99.90;;;;;;5111465;28;1159;-63
2022/10/20 10:03:20;;;;;;;;;;;12.50;99.90;;;;;;5110404;28;2294;-63
2022/10/20 10:05:48;;;;;;;;;;;12.70;99.90;;;;;;5104653;28;1512;-63
2022/10/20 10:08:15;;;;;;;;;;;12.90;99.90;;;;;;5105607;28;1266;-63
2022/10/20 10:10:42;;;;;;;;;;;13.00;99.90;;;;;;5105150;28;3074;-63
2022/10/20 10:13:19;;;;;;;;;;;13.00;99.90;;;;;;5111371;28;1139;-63
2022/10/20 10:15:45;;;;;;;;;;;13.10;99.90;;;;;;5111093;28;1256;-63
2022/10/20 10:18:12;;;;;;;;;;;13.10;99.90;;;;;;5109373;28;1910;-63
2022/10/20 10:20:38;;;;;;;;;;;13.10;99.90;;;;;;5110091;28;1278;-64
2022/10/20 10:23:25;;;;;;;;;;;13.10;99.90;;;;;;5109353;28;1206;-63
2022/10/20 10:25:51;;;;;;;;;;;13.00;99.90;;;;;;5107101;28;1199;-63
2022/10/20 10:28:29;;;;;;;;;;;13.10;99.90;;;;;;5110022;28;1158;-63
2022/10/20 10:31:07;;;;;;;;;;;13.10;99.90;;;;;;5110110;28;1179;-63
2022/10/20 10:33:33;;;;;;;;;;;13.20;99.90;;;;;;5111319;28;1329;-63
2022/10/20 10:36:01;;;;;;;;;;;13.30;99.90;;;;;;5110941;28;1140;-64
2022/10/20 10:38:27;;;;;;;;;;;13.40;99.90;;;;;;5111454;28;1972;-64
2022/10/20 10:41:01;;;;;;;;;;;13.50;99.90;;;;;;5107296;28;1059;-63
2022/10/20 10:43:29;;;;;;;;;;;13.50;99.90;;;;;;5106156;28;1630;-64
2022/10/20 10:45:57;;;;;;;;;;;13.40;99.90;;;;;;5108958;28;1008;-63
2022/10/20 10:48:31;;;;;;;;;;;13.40;99.90;;;;;;5099989;28;3583;-64
2022/10/20 10:50:58;;;;;;;;;;;13.40;99.90;;;;;;5108309;28;3477;-64
2022/10/20 10:53:43;;;;;;;;;;;13.40;99.90;;;;;;5110857;28;1286;-64
2022/10/20 10:56:21;;;;;;;;;;;13.40;99.90;;;;;;5110851;28;1076;-64
2022/10/20 10:59:04;;;;;;;;;;;13.40;99.90;;;;;;5109715;28;1980;-64
2022/10/20 11:01:33;;;;;;;;;;;13.40;99.90;;;;;;5105903;28;3621;-64
2022/10/20 11:03:58;;;;;;;;;;;13.50;99.90;;;;;;5099276;28;3503;-64
2022/10/20 11:06:30;;;;;;;;;;;13.50;99.90;;;;;;5106980;28;3515;-64
2022/10/20 11:09:03;;;;;;;;;;;13.50;99.90;;;;;;5110828;27;3624;-64
2022/10/20 11:11:29;;;;;;;;;;;13.50;99.90;;;;;;5110751;28;1297;-64
2022/10/20 11:14:03;;;;;;;;;;;13.70;99.90;;;;;;5110882;28;1083;-64
2022/10/20 11:16:38;;;;;;;;;;;13.80;99.90;;;;;;5107246;28;1226;-64
2022/10/20 11:19:18;;;;;;;;;;;14.20;99.90;;;;;;5110218;28;1965;-64
2022/10/20 11:21:53;;;;;;;;;;;14.50;99.90;;;;;;5111285;28;1091;-64
2022/10/20 11:24:38;;;;;;;;;;;14.60;99.90;;;;;;5111584;28;1080;-64
2022/10/20 11:27:12;;;;;;;;;;;14.60;99.90;;;;;;5099269;28;1011;-64
2022/10/20 11:29:40;;;;;;;;;;;14.60;99.90;;;;;;5111154;28;1143;-64
2022/10/20 11:32:10;;;;;;;;;;;14.60;99.90;;;;;;5111166;28;1103;-64
2022/10/20 11:34:39;;;;;;;;;;;14.60;99.90;;;;;;5109515;28;1298;-64
2022/10/20 11:37:06;;;;;;;;;;;14.80;99.90;;;;;;5111140;27;1150;-64
2022/10/20 11:39:37;;;;;;;;;;;14.90;99.90;;;;;;5110857;28;1914;-64
2022/10/20 11:42:14;;;;;;;;;;;14.90;99.90;;;;;;5108591;28;1171;-64
2022/10/20 11:44:40;;;;;;;;;;;14.80;99.90;;;;;;5126166;27;1289;-64
2022/10/20 11:47:09;;;;;;;;;;;14.60;99.90;;;;;;5109840;28;1406;-64
2022/10/20 11:49:36;;;;;;;;;;;14.60;99.90;;;;;;5110226;28;1071;-64
2022/10/20 11:52:02;;;;;;;;;;;14.50;99.90;;;;;;5110396;28;1111;-64
2022/10/20 11:54:29;;;;;;;;;;;14.50;99.90;;;;;;5109736;28;1163;-64
2022/10/20 11:57:13;;;;;;;;;;;14.40;99.90;;;;;;5110391;28;1159;-64
2022/10/20 11:59:56;;;;;;;;;;;14.40;99.90;;;;;;5110582;28;1902;-64
2022/10/20 12:02:23;;;;;;;;;;;14.40;99.90;;;;;;5108266;28;1206;-64
2022/10/20 12:04:49;;;;;;;;;;;14.50;99.90;;;;;;5109849;28;1223;-64
2022/10/20 12:07:20;;;;;;;;;;;14.50;99.90;;;;;;5109869;28;1223;-64
2022/10/20 12:10:01;;;;;;;;;;;14.60;99.90;;;;;;5109293;27;1151;-64
2022/10/20 12:12:31;;;;;;;;;;;14.60;99.90;;;;;;5097679;28;1084;-64
2022/10/20 12:14:59;;;;;;;;;;;14.50;99.90;;;;;;5110416;28;1072;-64
2022/10/20 12:17:45;;;;;;;;;;;14.40;99.90;;;;;;5109624;28;1115;-64
2022/10/20 12:20:32;;;;;;;;;;;14.40;99.90;;;;;;5107745;28;2000;-64
2022/10/20 12:22:58;;;;;;;;;;;14.30;99.90;;;;;;5109283;28;2047;-64
2022/10/20 12:25:23;;;;;;;;;;;14.10;99.90;;;;;;5109746;28;1115;-64
2022/10/20 12:28:08;;;;;;;;;;;14.00;99.90;;;;;;5098066;28;1171;-64
2022/10/20 12:30:35;;;;;;;;;;;13.90;99.90;;;;;;5109358;28;1113;-64
2022/10/20 12:33:14;;;;;;;;;;;13.80;99.90;;;;;;5108078;28;3560;-64
2022/10/20 12:35:58;;;;;;;;;;;13.80;99.90;;;;;;5100608;28;3841;-64
2022/10/20 12:38:24;;;;;;;;;;;13.70;99.90;;;;;;5105841;28;3724;-64
2022/10/20 12:40:53;;;;;;;;;;;13.70;99.90;;;;;;5099511;28;3416;-64
2022/10/20 12:43:26;;;;;;;;;;;13.60;99.90;;;;;;5102634;28;1145;-64
2022/10/20 12:45:55;;;;;;;;;;;13.60;99.90;;;;;;5096766;28;3784;-64
2022/10/20 12:48:22;;;;;;;;;;;13.50;99.90;;;;;;5109068;28;1107;-64
2022/10/20 12:50:49;;;;;;;;;;;13.50;99.90;;;;;;5106606;28;1467;-64
2022/10/20 12:53:16;;;;;;;;;;;13.40;99.90;;;;;;5105397;28;1687;-64
2022/10/20 12:55:43;;;;;;;;;;;13.30;99.90;;;;;;5108645;28;1344;-64
2022/10/20 12:58:09;;;;;;;;;;;13.20;99.90;;;;;;5106186;28;1162;-63
2022/10/20 13:00:35;;;;;;;;;;;13.20;99.90;;;;;;5108309;28;1910;-64
2022/10/20 13:03:01;;;;;;;;;;;13.10;99.90;;;;;;5107118;28;1250;-64
2022/10/20 13:05:26;;;;;;;;;;;13.00;99.90;;;;;;5108441;28;1285;-64
2022/10/20 13:07:52;;;;;;;;;;;13.00;99.90;;;;;;5108995;28;1345;-64
2022/10/20 13:10:34;;;;;;;;;;;12.90;99.90;;;;;;5108220;28;1148;-64
2022/10/20 13:13:00;;;;;;;;;;;12.90;99.90;;;;;;5094235;28;1149;-64
2022/10/20 13:15:27;;;;;;;;;;;12.90;99.90;;;;;;5108883;28;1076;-64
2022/10/20 13:17:58;;;;;;;;;;;12.90;99.90;;;;;;5108477;28;1080;-64
2022/10/20 13:20:27;;;;;;;;;;;12.90;99.90;;;;;;5094886;28;1909;-64
2022/10/20 13:22:53;;;;;;;;;;;12.80;99.90;;;;;;5110191;28;1080;-64
2022/10/20 13:25:30;;;;;;;;;;;12.80;99.90;;;;;;5113129;28;1151;-64
2022/10/20 13:28:03;;;;;;;;;;;12.80;99.90;;;;;;5100918;28;1507;-64
2022/10/20 13:30:30;;;;;;;;;;;12.70;99.90;;;;;;5112600;28;1118;-65
2022/10/20 13:33:03;;;;;;;;;;;12.70;99.90;;;;;;5111969;28;1348;-64
2022/10/20 13:35:32;;;;;;;;;;;12.60;99.90;;;;;;5106449;28;1084;-64
2022/10/20 13:38:03;;;;;;;;;;;12.50;99.90;;;;;;5110926;28;1084;-64
2022/10/20 13:40:28;;;;;;;;;;;12.40;99.90;;;;;;5112204;28;1918;-64
2022/10/20 13:43:06;;;;;;;;;;;12.40;99.90;;;;;;5113003;28;1137;-64
2022/10/20 13:45:45;;;;;;;;;;;12.30;99.90;;;;;;5126400;27;1113;-65
2022/10/20 13:48:13;;;;;;;;;;;12.30;99.90;;;;;;5110999;28;1459;-64
2022/10/20 13:50:41;;;;;;;;;;;12.20;99.90;;;;;;5113307;28;1147;-64
2022/10/20 13:53:13;;;;;;;;;;;12.20;99.90;;;;;;5106738;28;1143;-64
2022/10/20 13:55:57;;;;;;;;;;;12.10;99.90;;;;;;5108683;28;1184;-64
2022/10/20 13:58:23;;;;;;;;;;;12.10;99.90;;;;;;5113070;28;1918;-64
2022/10/20 14:00:58;;;;;;;;;;;12.00;99.90;;;;;;5128001;27;1098;-64
2022/10/20 14:03:24;;;;;;;;;;;12.00;99.90;;;;;;5107923;28;1244;-65
2022/10/20 14:05:53;;;;;;;;;;;11.90;99.90;;;;;;5109139;28;1270;-66
2022/10/20 14:08:19;;;;;;;;;;;11.90;99.90;;;;;;5111097;27;1278;-66
2022/10/20 14:10:52;;;;;;;;;;;11.90;99.90;;;;;;5106235;28;1211;-64
2022/10/20 14:13:19;;;;;;;;;;;11.90;99.90;;;;;;5107064;28;1804;-65
2022/10/20 14:15:47;;;;;;;;;;;11.90;99.90;;;;;;5112134;28;1039;-66
2022/10/20 14:18:23;;;;;;;;;;;11.90;99.90;;;;;;5112027;28;1158;-66
2022/10/20 14:20:54;;;;;;;;;;;11.90;99.90;;;;;;5107523;28;1207;-65
2022/10/20 14:23:20;;;;;;;;;;;11.80;99.90;;;;;;5101353;28;1115;-65
2022/10/20 14:25:47;;;;;;;;;;;11.80;99.90;;;;;;5112322;28;1162;-64
2022/10/20 14:28:17;;;;;;;;;;;11.80;99.90;;;;;;5108213;28;1084;-64
2022/10/20 14:30:42;;;;;;;;;;;11.80;99.90;;;;;;5101103;28;1143;-64
2022/10/20 14:33:14;;;;;;;;;;;11.80;99.90;;;;;;5111259;28;1263;-65
2022/10/20 14:35:43;;;;;;;;;;;11.80;99.90;;;;;;5110926;28;1138;-66
2022/10/20 14:38:21;;;;;;;;;;;11.80;99.90;;;;;;5111356;28;1004;-66
2022/10/20 14:40:48;;;;;;;;;;;11.80;99.90;;;;;;5108608;28;1216;-65
2022/10/20 14:43:16;;;;;;;;;;;11.80;99.90;;;;;;5121112;27;1242;-65
2022/10/20 14:45:50;;;;;;;;;;;11.70;99.90;;;;;;5117856;27;1278;-64